createdAt,value
2017-12-11T00:01:05.173Z,958.39
2017-12-11T00:02:15.147Z,958.41
2017-12-11T00:03:25.130Z,958.46
2017-12-11T00:04:35.106Z,958.45
2017-12-11T00:05:44.816Z,958.43
2017-12-11T00:06:54.864Z,958.49
2017-12-11T00:08:04.842Z,958.42
2017-12-11T00:09:14.583Z,958.47
2017-12-11T00:10:24.559Z,958.47
2017-12-11T00:11:34.542Z,958.49
2017-12-11T00:12:44.255Z,958.49
2017-12-11T00:13:54.241Z,958.49
2017-12-11T00:15:04.220Z,958.51
2017-12-11T00:16:13.931Z,958.5
2017-12-11T00:17:23.383Z,958.5
2017-12-11T00:18:33.110Z,958.52
2017-12-11T00:19:43.091Z,958.52
2017-12-11T00:20:53.084Z,958.53
2017-12-11T00:22:03.064Z,958.52
2017-12-11T00:23:12.777Z,958.56
2017-12-11T00:24:22.754Z,958.57
2017-12-11T00:25:32.738Z,958.57
2017-12-11T00:26:42.720Z,958.63
2017-12-11T00:27:52.435Z,958.64
2017-12-11T00:29:02.412Z,958.6
2017-12-11T00:30:12.391Z,958.56
2017-12-11T00:31:22.370Z,958.6
2017-12-11T00:32:32.084Z,958.56
2017-12-11T00:33:42.064Z,958.58
2017-12-11T00:34:52.045Z,958.58
2017-12-11T00:36:01.770Z,958.55
2017-12-11T00:37:11.750Z,958.58
2017-12-11T00:38:21.735Z,958.56
2017-12-11T00:39:31.712Z,958.56
2017-12-11T00:40:41.689Z,958.55
2017-12-11T00:41:51.665Z,958.56
2017-12-11T00:43:01.643Z,958.65
2017-12-11T00:44:11.681Z,958.67
2017-12-11T00:45:21.658Z,958.68
2017-12-11T00:46:31.645Z,958.7
2017-12-11T00:47:41.632Z,958.74
2017-12-11T00:48:51.347Z,958.73
2017-12-11T00:50:01.063Z,958.73
2017-12-11T00:51:10.512Z,958.72
2017-12-11T00:52:20.489Z,958.73
2017-12-11T00:53:30.474Z,958.74
2017-12-11T00:54:40.453Z,958.71
2017-12-11T00:55:50.428Z,958.73
2017-12-11T00:57:00.137Z,958.71
2017-12-11T00:58:10.119Z,958.72
2017-12-11T00:59:19.834Z,958.73
2017-12-11T01:00:29.279Z,958.75
2017-12-11T01:01:39.255Z,958.75
2017-12-11T01:02:49.240Z,958.77
2017-12-11T01:03:58.692Z,958.83
2017-12-11T01:05:08.669Z,958.83
2017-12-11T01:06:18.389Z,958.81
2017-12-11T01:07:28.365Z,958.79
2017-12-11T01:08:38.343Z,958.8
2017-12-11T01:09:48.052Z,958.78
2017-12-11T01:10:58.033Z,958.83
2017-12-11T01:12:07.743Z,958.83
2017-12-11T01:13:17.722Z,958.83
2017-12-11T01:14:27.699Z,958.88
2017-12-11T01:15:37.678Z,958.85
2017-12-11T01:16:47.651Z,958.85
2017-12-11T01:17:57.732Z,958.88
2017-12-11T01:19:07.711Z,958.9
2017-12-11T01:20:17.686Z,958.89
2017-12-11T01:21:27.666Z,958.87
2017-12-11T01:22:37.649Z,958.92
2017-12-11T01:23:47.631Z,958.96
2017-12-11T01:24:57.613Z,958.97
2017-12-11T01:26:07.589Z,958.99
2017-12-11T01:27:17.563Z,959.01
2017-12-11T01:28:27.551Z,959.02
2017-12-11T01:29:37.531Z,959.04
2017-12-11T01:30:47.505Z,959.01
2017-12-11T01:31:57.292Z,959.05
2017-12-11T01:33:07.006Z,959.02
2017-12-11T01:34:16.983Z,959.06
2017-12-11T01:35:26.961Z,959.15
2017-12-11T01:36:36.671Z,959.2
2017-12-11T01:37:46.648Z,959.23
2017-12-11T01:38:56.624Z,959.21
2017-12-11T01:40:06.600Z,959.22
2017-12-11T01:41:16.578Z,959.2
2017-12-11T01:42:26.554Z,959.26
2017-12-11T01:43:36.598Z,959.24
2017-12-11T01:44:46.572Z,959.23
2017-12-11T01:45:56.620Z,959.21
2017-12-11T01:47:06.597Z,959.19
2017-12-11T01:48:16.571Z,959.18
2017-12-11T01:49:26.551Z,959.18
2017-12-11T01:50:36.538Z,959.19
2017-12-11T01:51:46.526Z,959.19
2017-12-11T01:52:56.506Z,959.25
2017-12-11T01:54:06.535Z,959.24
2017-12-11T01:55:16.262Z,959.26
2017-12-11T01:56:26.248Z,959.28
2017-12-11T01:57:36.225Z,959.29
2017-12-11T01:58:46.206Z,959.33
2017-12-11T01:59:56.180Z,959.35
2017-12-11T02:01:05.632Z,959.35
2017-12-11T02:02:15.610Z,959.35
2017-12-11T02:03:25.320Z,959.36
2017-12-11T02:04:35.297Z,959.39
2017-12-11T02:05:45.011Z,959.45
2017-12-11T02:06:54.988Z,959.46
2017-12-11T02:08:04.969Z,959.41
2017-12-11T02:09:14.950Z,959.45
2017-12-11T02:10:24.672Z,959.46
2017-12-11T02:11:34.667Z,959.43
2017-12-11T02:12:44.647Z,959.43
2017-12-11T02:13:54.631Z,959.5
2017-12-11T02:15:04.372Z,959.51
2017-12-11T02:16:14.413Z,959.53
2017-12-11T02:17:24.400Z,959.58
2017-12-11T02:18:34.376Z,959.53
2017-12-11T02:19:44.356Z,959.6
2017-12-11T02:20:54.340Z,959.63
2017-12-11T02:22:04.320Z,959.61
2017-12-11T02:23:14.293Z,959.65
2017-12-11T02:24:24.268Z,959.66
2017-12-11T02:25:34.246Z,959.68
2017-12-11T02:26:44.220Z,959.66
2017-12-11T02:27:53.944Z,959.64
2017-12-11T02:29:03.922Z,959.65
2017-12-11T02:30:13.638Z,959.65
2017-12-11T02:31:23.629Z,959.69
2017-12-11T02:32:33.457Z,959.67
2017-12-11T02:33:43.456Z,959.68
2017-12-11T02:34:53.430Z,959.68
2017-12-11T02:36:03.156Z,959.73
2017-12-11T02:37:12.893Z,959.75
2017-12-11T02:38:22.880Z,959.73
2017-12-11T02:39:32.919Z,959.72
2017-12-11T02:40:42.917Z,959.74
2017-12-11T02:41:52.933Z,959.76
2017-12-11T02:43:02.923Z,959.74
2017-12-11T02:44:12.903Z,959.75
2017-12-11T02:45:22.886Z,959.77
2017-12-11T02:46:32.934Z,959.73
2017-12-11T02:47:42.922Z,959.73
2017-12-11T02:48:52.907Z,959.76
2017-12-11T02:50:02.891Z,959.81
2017-12-11T02:51:12.342Z,959.82
2017-12-11T02:52:22.324Z,959.83
2017-12-11T02:53:32.302Z,959.82
2017-12-11T02:54:42.285Z,959.83
2017-12-11T02:55:51.997Z,959.79
2017-12-11T02:57:01.978Z,959.84
2017-12-11T02:58:11.959Z,959.84
2017-12-11T02:59:21.712Z,959.86
2017-12-11T03:00:31.685Z,959.91
2017-12-11T03:01:41.672Z,959.93
2017-12-11T03:02:51.652Z,959.93
2017-12-11T03:04:01.650Z,959.92
2017-12-11T03:05:11.626Z,959.99
2017-12-11T03:06:21.339Z,960.02
2017-12-11T03:07:31.316Z,960.06
2017-12-11T03:08:41.294Z,960.04
2017-12-11T03:09:51.521Z,960.05
2017-12-11T03:11:01.500Z,960.03
2017-12-11T03:12:11.214Z,960.06
2017-12-11T03:13:21.187Z,960.06
2017-12-11T03:14:31.169Z,960.07
2017-12-11T03:15:40.892Z,960.07
2017-12-11T03:16:50.337Z,960.09
2017-12-11T03:18:00.312Z,960.1
2017-12-11T03:19:10.036Z,960.11
2017-12-11T03:20:20.011Z,960.07
2017-12-11T03:21:29.998Z,960.09
2017-12-11T03:22:39.991Z,960.09
2017-12-11T03:23:49.973Z,960.13
2017-12-11T03:24:59.954Z,960.15
2017-12-11T03:26:09.937Z,960.15
2017-12-11T03:27:19.918Z,960.2
2017-12-11T03:28:29.892Z,960.24
2017-12-11T03:29:39.878Z,960.21
2017-12-11T03:30:49.858Z,960.13
2017-12-11T03:31:59.854Z,960.12
2017-12-11T03:33:09.569Z,960.14
2017-12-11T03:34:19.542Z,960.13
2017-12-11T03:35:29.517Z,960.21
2017-12-11T03:36:39.495Z,960.24
2017-12-11T03:37:49.264Z,960.27
2017-12-11T03:38:58.979Z,960.26
2017-12-11T03:40:08.695Z,960.3
2017-12-11T03:41:18.673Z,960.35
2017-12-11T03:42:28.648Z,960.36
2017-12-11T03:43:38.632Z,960.34
2017-12-11T03:44:48.611Z,960.35
2017-12-11T03:45:58.645Z,960.4
2017-12-11T03:47:08.632Z,960.37
2017-12-11T03:48:18.615Z,960.34
2017-12-11T03:49:28.594Z,960.41
2017-12-11T03:50:38.572Z,960.38
2017-12-11T03:51:48.549Z,960.39
2017-12-11T03:52:58.262Z,960.4
2017-12-11T03:54:08.249Z,960.4
2017-12-11T03:55:18.232Z,960.37
2017-12-11T03:56:28.216Z,960.4
2017-12-11T03:57:38.192Z,960.43
2017-12-11T03:58:48.167Z,960.46
2017-12-11T03:59:58.151Z,960.44
2017-12-11T04:03:40.167Z,960.49
2017-12-11T04:04:50.144Z,960.56
2017-12-11T04:06:00.124Z,960.56
2017-12-11T04:07:09.840Z,960.58
2017-12-11T04:08:19.822Z,960.54
2017-12-11T04:09:29.531Z,960.54
2017-12-11T04:10:39.506Z,960.56
2017-12-11T04:11:49.483Z,960.59
2017-12-11T04:12:59.196Z,960.54
2017-12-11T04:14:08.908Z,960.57
2017-12-11T04:15:18.630Z,960.6
2017-12-11T04:16:28.673Z,960.63
2017-12-11T04:17:38.387Z,960.66
2017-12-11T04:18:48.368Z,960.64
2017-12-11T04:19:58.348Z,960.65
2017-12-11T04:21:08.062Z,960.69
2017-12-11T04:22:18.041Z,960.69
2017-12-11T04:23:28.029Z,960.71
2017-12-11T04:24:38.009Z,960.7
2017-12-11T04:25:48.031Z,960.7
2017-12-11T04:26:58.010Z,960.74
2017-12-11T04:28:07.988Z,960.71
2017-12-11T04:29:17.702Z,960.75
2017-12-11T04:30:27.469Z,960.79
2017-12-11T04:31:37.455Z,960.79
2017-12-11T04:32:47.434Z,960.8
2017-12-11T04:33:57.150Z,960.77
2017-12-11T04:35:07.125Z,960.83
2017-12-11T04:36:17.102Z,960.78
2017-12-11T04:37:27.087Z,960.83
2017-12-11T04:38:37.119Z,960.83
2017-12-11T04:39:47.097Z,960.86
2017-12-11T04:40:57.077Z,960.88
2017-12-11T04:42:06.792Z,960.9
2017-12-11T04:43:16.769Z,960.89
2017-12-11T04:44:26.480Z,960.88
2017-12-11T04:45:36.457Z,960.87
2017-12-11T04:46:46.436Z,960.87
2017-12-11T04:47:56.146Z,960.88
2017-12-11T04:49:05.854Z,960.95
2017-12-11T04:50:15.832Z,960.91
2017-12-11T04:51:25.806Z,960.9
2017-12-11T04:52:35.518Z,960.94
2017-12-11T04:53:45.499Z,961.01
2017-12-11T04:54:55.483Z,961.01
2017-12-11T04:56:05.523Z,960.99
2017-12-11T04:57:14.966Z,961.01
2017-12-11T04:58:24.679Z,960.99
2017-12-11T04:59:34.658Z,961.04
2017-12-11T05:00:44.639Z,961.02
2017-12-11T05:01:54.632Z,961.09
2017-12-11T05:03:04.343Z,961.08
2017-12-11T05:04:14.338Z,961.09
2017-12-11T05:05:24.318Z,961.1
2017-12-11T05:06:34.298Z,961.12
2017-12-11T05:07:44.284Z,961.17
2017-12-11T05:08:54.272Z,961.2
2017-12-11T05:10:03.984Z,961.26
2017-12-11T05:11:13.703Z,961.29
2017-12-11T05:12:23.416Z,961.33
2017-12-11T05:13:33.406Z,961.28
2017-12-11T05:14:43.388Z,961.26
2017-12-11T05:15:53.415Z,961.27
2017-12-11T05:17:03.395Z,961.3
2017-12-11T05:18:13.375Z,961.34
2017-12-11T05:19:23.353Z,961.35
2017-12-11T05:20:33.402Z,961.36
2017-12-11T05:21:43.114Z,961.34
2017-12-11T05:22:53.093Z,961.32
2017-12-11T05:24:02.804Z,961.37
2017-12-11T05:25:12.781Z,961.36
2017-12-11T05:26:22.497Z,961.38
2017-12-11T05:27:32.480Z,961.36
2017-12-11T05:28:42.491Z,961.41
2017-12-11T05:29:52.475Z,961.41
2017-12-11T05:31:02.184Z,961.42
2017-12-11T05:32:11.958Z,961.39
2017-12-11T05:33:21.671Z,961.44
2017-12-11T05:34:31.384Z,961.44
2017-12-11T05:35:41.366Z,961.42
2017-12-11T05:36:51.398Z,961.47
2017-12-11T05:38:01.171Z,961.48
2017-12-11T05:39:10.895Z,961.54
2017-12-11T05:40:20.872Z,961.52
2017-12-11T05:41:30.858Z,961.51
2017-12-11T05:42:40.842Z,961.54
2017-12-11T05:43:50.568Z,961.52
2017-12-11T05:45:00.562Z,961.48
2017-12-11T05:46:10.270Z,961.48
2017-12-11T05:47:20.255Z,961.51
2017-12-11T05:48:29.963Z,961.53
2017-12-11T05:49:39.944Z,961.54
2017-12-11T05:50:49.949Z,961.56
2017-12-11T05:52:00.008Z,961.54
2017-12-11T05:53:09.455Z,961.55
2017-12-11T05:54:19.172Z,961.56
2017-12-11T05:55:29.155Z,961.59
2017-12-11T05:56:39.142Z,961.61
2017-12-11T05:57:49.123Z,961.59
2017-12-11T05:58:59.110Z,961.62
2017-12-11T06:00:09.082Z,961.64
2017-12-11T06:01:19.057Z,961.63
2017-12-11T06:02:29.033Z,961.66
2017-12-11T06:03:39.010Z,961.63
2017-12-11T06:04:48.997Z,961.67
2017-12-11T06:05:58.979Z,961.69
2017-12-11T06:07:08.699Z,961.7
2017-12-11T06:08:18.421Z,961.72
2017-12-11T06:09:28.130Z,961.76
2017-12-11T06:10:38.110Z,961.74
2017-12-11T06:11:48.087Z,961.76
2017-12-11T06:12:58.134Z,961.77
2017-12-11T06:14:07.847Z,961.78
2017-12-11T06:15:17.580Z,961.81
2017-12-11T06:16:27.560Z,961.83
2017-12-11T06:17:37.539Z,961.84
2017-12-11T06:18:47.517Z,961.89
2017-12-11T06:19:57.490Z,961.86
2017-12-11T06:21:07.490Z,961.91
2017-12-11T06:22:17.470Z,961.97
2017-12-11T06:23:27.450Z,962
2017-12-11T06:24:37.428Z,962.01
2017-12-11T06:25:47.455Z,962.02
2017-12-11T06:26:57.430Z,962.01
2017-12-11T06:28:07.143Z,962.06
2017-12-11T06:29:17.120Z,962.07
2017-12-11T06:30:27.103Z,962.09
2017-12-11T06:31:36.867Z,962.08
2017-12-11T06:32:46.855Z,962.09
2017-12-11T06:33:56.831Z,962.1
2017-12-11T06:35:06.819Z,962.1
2017-12-11T06:36:16.535Z,962.09
2017-12-11T06:37:26.248Z,962.11
2017-12-11T06:38:36.229Z,962.09
2017-12-11T06:39:46.203Z,962.1
2017-12-11T06:40:56.177Z,962.12
2017-12-11T06:42:05.894Z,962.14
2017-12-11T06:43:15.341Z,962.17
2017-12-11T06:44:25.054Z,962.12
2017-12-11T06:45:34.766Z,962.19
2017-12-11T06:46:44.745Z,962.24
2017-12-11T06:47:54.721Z,962.21
2017-12-11T06:49:04.463Z,962.22
2017-12-11T06:50:14.442Z,962.25
2017-12-11T06:51:24.472Z,962.29
2017-12-11T06:52:34.196Z,962.31
2017-12-11T06:53:44.190Z,962.3
2017-12-11T06:54:53.928Z,962.34
2017-12-11T06:56:03.640Z,962.41
2017-12-11T06:57:13.619Z,962.42
2017-12-11T06:58:23.595Z,962.44
2017-12-11T06:59:33.576Z,962.38
2017-12-11T07:00:43.560Z,962.43
2017-12-11T07:01:53.554Z,962.5
2017-12-11T07:03:03.541Z,962.51
2017-12-11T07:04:13.528Z,962.57
2017-12-11T07:05:23.509Z,962.59
2017-12-11T07:06:33.481Z,962.61
2017-12-11T07:07:43.193Z,962.6
2017-12-11T07:08:53.172Z,962.62
2017-12-11T07:10:03.148Z,962.6
2017-12-11T07:11:12.859Z,962.62
2017-12-11T07:12:22.573Z,962.67
2017-12-11T07:13:32.557Z,962.69
2017-12-11T07:14:42.539Z,962.67
2017-12-11T07:15:52.580Z,962.73
2017-12-11T07:17:02.574Z,962.71
2017-12-11T07:18:12.563Z,962.68
2017-12-11T07:19:22.282Z,962.76
2017-12-11T07:20:32.266Z,962.69
2017-12-11T07:21:42.246Z,962.77
2017-12-11T07:22:52.281Z,962.74
2017-12-11T07:24:02.265Z,962.82
2017-12-11T07:25:11.980Z,962.83
2017-12-11T07:26:21.704Z,962.89
2017-12-11T07:27:31.683Z,962.91
2017-12-11T07:28:41.673Z,962.89
2017-12-11T07:29:51.653Z,962.94
2017-12-11T07:31:01.635Z,962.94
2017-12-11T07:32:11.691Z,962.91
2017-12-11T07:33:21.669Z,962.89
2017-12-11T07:34:31.650Z,962.9
2017-12-11T07:35:41.369Z,962.88
2017-12-11T07:36:51.081Z,962.86
2017-12-11T07:38:01.063Z,962.94
2017-12-11T07:39:10.778Z,962.94
2017-12-11T07:40:20.764Z,962.95
2017-12-11T07:41:30.754Z,962.97
2017-12-11T07:42:40.736Z,962.93
2017-12-11T07:43:50.729Z,962.98
2017-12-11T07:45:00.449Z,962.95
2017-12-11T07:46:10.434Z,962.95
2017-12-11T07:47:20.148Z,962.99
2017-12-11T07:48:29.861Z,963.02
2017-12-11T07:49:39.843Z,963.02
2017-12-11T07:50:49.828Z,962.99
2017-12-11T07:51:59.819Z,963.02
2017-12-11T07:53:09.270Z,963.02
2017-12-11T07:54:18.988Z,962.95
2017-12-11T07:55:28.973Z,963
2017-12-11T07:56:38.952Z,962.99
2017-12-11T07:57:48.929Z,963.01
2017-12-11T07:58:58.907Z,963.03
2017-12-11T08:00:08.889Z,963.05
2017-12-11T08:01:18.345Z,963.13
2017-12-11T08:02:28.071Z,963.09
2017-12-11T08:03:38.050Z,963.12
2017-12-11T08:04:47.768Z,963.14
2017-12-11T08:05:57.483Z,963.16
2017-12-11T08:07:07.462Z,963.23
2017-12-11T08:08:17.442Z,963.25
2017-12-11T08:09:27.424Z,963.27
2017-12-11T08:10:37.405Z,963.27
2017-12-11T08:11:47.386Z,963.25
2017-12-11T08:12:57.109Z,963.29
2017-12-11T08:14:10.828Z,963.31
2017-12-11T08:15:20.820Z,963.32
2017-12-11T08:16:30.809Z,963.29
2017-12-11T08:17:40.796Z,963.3
2017-12-11T08:18:50.795Z,963.26
2017-12-11T08:20:00.775Z,963.3
2017-12-11T08:21:10.774Z,963.26
2017-12-11T08:22:20.760Z,963.31
2017-12-11T08:23:30.743Z,963.31
2017-12-11T08:24:40.737Z,963.34
2017-12-11T08:25:50.467Z,963.4
2017-12-11T08:27:00.478Z,963.43
2017-12-11T08:28:10.205Z,963.46
2017-12-11T08:29:20.213Z,963.45
2017-12-11T08:30:30.208Z,963.44
2017-12-11T08:31:40.195Z,963.51
2017-12-11T08:32:49.908Z,963.55
2017-12-11T08:33:59.626Z,963.51
2017-12-11T08:35:09.605Z,963.54
2017-12-11T08:36:19.579Z,963.53
2017-12-11T08:37:29.622Z,963.59
2017-12-11T08:38:39.599Z,963.62
2017-12-11T08:39:49.635Z,963.63
2017-12-11T08:40:59.616Z,963.6
2017-12-11T08:42:09.604Z,963.57
2017-12-11T08:43:19.595Z,963.58
2017-12-11T08:44:29.576Z,963.64
2017-12-11T08:45:39.561Z,963.64
2017-12-11T08:46:49.624Z,963.64
2017-12-11T08:47:59.623Z,963.65
2017-12-11T08:49:09.336Z,963.67
2017-12-11T08:50:19.323Z,963.68
2017-12-11T08:51:29.303Z,963.69
2017-12-11T08:52:39.285Z,963.69
2017-12-11T08:53:49.263Z,963.68
2017-12-11T08:54:59.244Z,963.67
2017-12-11T08:56:08.696Z,963.7
2017-12-11T08:57:18.417Z,963.73
2017-12-11T08:58:28.130Z,963.76
2017-12-11T08:59:38.111Z,963.74
2017-12-11T09:00:47.825Z,963.74
2017-12-11T09:01:57.813Z,963.81
2017-12-11T09:03:07.793Z,963.78
2017-12-11T09:04:17.519Z,963.78
2017-12-11T09:05:27.498Z,963.76
2017-12-11T09:06:38.435Z,963.85
2017-12-11T09:07:48.148Z,963.86
2017-12-11T09:08:58.137Z,963.84
2017-12-11T09:10:08.128Z,963.88
2017-12-11T09:11:18.106Z,963.88
2017-12-11T09:12:28.090Z,963.89
2017-12-11T09:13:38.069Z,963.92
2017-12-11T09:14:48.054Z,963.93
2017-12-11T09:15:58.033Z,963.92
2017-12-11T09:17:08.014Z,963.98
2017-12-11T09:18:18.030Z,963.95
2017-12-11T09:19:27.745Z,964
2017-12-11T09:20:37.723Z,963.97
2017-12-11T09:21:47.457Z,963.99
2017-12-11T09:22:57.438Z,963.94
2017-12-11T09:24:07.416Z,963.95
2017-12-11T09:25:17.398Z,963.92
2017-12-11T09:26:27.381Z,964.02
2017-12-11T09:27:37.363Z,963.97
2017-12-11T09:28:47.350Z,964
2017-12-11T09:29:57.333Z,963.99
2017-12-11T09:31:07.312Z,963.99
2017-12-11T09:32:17.028Z,964.01
2017-12-11T09:33:26.740Z,964.03
2017-12-11T09:34:36.718Z,964.04
2017-12-11T09:35:46.698Z,964.07
2017-12-11T09:36:56.682Z,964.07
2017-12-11T09:38:06.673Z,964.04
2017-12-11T09:39:16.654Z,964.04
2017-12-11T09:40:26.687Z,964.02
2017-12-11T09:41:36.672Z,963.97
2017-12-11T09:42:46.652Z,963.97
2017-12-11T09:43:56.632Z,963.99
2017-12-11T09:45:06.391Z,964
2017-12-11T09:46:16.118Z,964.07
2017-12-11T09:47:26.102Z,964.14
2017-12-11T09:48:36.083Z,964.14
2017-12-11T09:49:46.064Z,964.22
2017-12-11T09:50:56.053Z,964.22
2017-12-11T09:52:06.036Z,964.2
2017-12-11T09:53:15.751Z,964.17
2017-12-11T09:54:25.462Z,964.15
2017-12-11T09:55:35.444Z,964.12
2017-12-11T09:56:45.426Z,964.12
2017-12-11T09:57:55.404Z,964.12
2017-12-11T09:59:05.121Z,964.15
2017-12-11T10:00:14.833Z,964.15
2017-12-11T10:01:24.811Z,964.16
2017-12-11T10:02:34.793Z,964.18
2017-12-11T10:03:44.779Z,964.2
2017-12-11T10:04:56.759Z,964.17
2017-12-11T10:06:06.745Z,964.14
2017-12-11T10:07:16.736Z,964.18
2017-12-11T10:08:26.719Z,964.12
2017-12-11T10:09:36.179Z,964.17
2017-12-11T10:10:46.219Z,964.18
2017-12-11T10:11:55.935Z,964.21
2017-12-11T10:13:05.910Z,964.2
2017-12-11T10:14:15.891Z,964.26
2017-12-11T10:15:25.875Z,964.23
2017-12-11T10:16:35.588Z,964.24
2017-12-11T10:17:45.576Z,964.22
2017-12-11T10:18:55.562Z,964.25
2017-12-11T10:20:05.607Z,964.25
2017-12-11T10:21:15.334Z,964.27
2017-12-11T10:22:25.319Z,964.29
2017-12-11T10:23:35.039Z,964.27
2017-12-11T10:24:45.030Z,964.33
2017-12-11T10:25:55.010Z,964.32
2017-12-11T10:27:04.728Z,964.35
2017-12-11T10:28:14.713Z,964.3
2017-12-11T10:29:24.167Z,964.32
2017-12-11T10:30:34.171Z,964.29
2017-12-11T10:31:44.152Z,964.28
2017-12-11T10:32:54.135Z,964.24
2017-12-11T10:34:04.118Z,964.26
2017-12-11T10:35:14.097Z,964.31
2017-12-11T10:36:23.813Z,964.33
2017-12-11T10:37:33.802Z,964.34
2017-12-11T10:38:43.784Z,964.37
2017-12-11T10:39:53.766Z,964.36
2017-12-11T10:41:03.215Z,964.36
2017-12-11T10:42:12.931Z,964.3
2017-12-11T10:43:22.646Z,964.28
2017-12-11T10:44:32.628Z,964.28
2017-12-11T10:45:42.616Z,964.34
2017-12-11T10:46:52.595Z,964.33
2017-12-11T10:48:02.580Z,964.32
2017-12-11T10:49:12.568Z,964.34
2017-12-11T10:50:22.283Z,964.3
2017-12-11T10:51:32.320Z,964.34
2017-12-11T10:52:42.309Z,964.3
2017-12-11T10:53:52.297Z,964.33
2017-12-11T10:55:02.273Z,964.31
2017-12-11T10:56:12.257Z,964.34
2017-12-11T10:57:21.706Z,964.31
2017-12-11T10:58:31.685Z,964.29
2017-12-11T10:59:41.665Z,964.25
2017-12-11T11:00:51.380Z,964.24
2017-12-11T11:02:01.368Z,964.3
2017-12-11T11:03:11.347Z,964.27
2017-12-11T11:04:21.328Z,964.35
2017-12-11T11:05:31.300Z,964.35
2017-12-11T11:06:41.286Z,964.34
2017-12-11T11:07:51.011Z,964.35
2017-12-11T11:09:01.001Z,964.39
2017-12-11T11:10:11.050Z,964.38
2017-12-11T11:11:21.033Z,964.37
2017-12-11T11:12:31.014Z,964.42
2017-12-11T11:13:40.743Z,964.41
2017-12-11T11:14:50.463Z,964.38
2017-12-11T11:16:00.513Z,964.42
2017-12-11T11:17:10.494Z,964.41
2017-12-11T11:18:20.210Z,964.42
2017-12-11T11:19:29.927Z,964.4
2017-12-11T11:20:39.912Z,964.35
2017-12-11T11:21:49.981Z,964.35
2017-12-11T11:22:59.963Z,964.39
2017-12-11T11:24:09.959Z,964.38
2017-12-11T11:25:19.938Z,964.41
2017-12-11T11:26:29.931Z,964.42
2017-12-11T11:27:39.649Z,964.39
2017-12-11T11:28:49.629Z,964.39
2017-12-11T11:29:59.611Z,964.36
2017-12-11T11:31:09.611Z,964.36
2017-12-11T11:32:19.057Z,964.31
2017-12-11T11:33:29.045Z,964.29
2017-12-11T11:34:39.030Z,964.28
2017-12-11T11:35:49.013Z,964.25
2017-12-11T11:36:58.993Z,964.2
2017-12-11T11:38:08.974Z,964.23
2017-12-11T11:39:18.961Z,964.25
2017-12-11T11:40:28.412Z,964.21
2017-12-11T11:41:38.395Z,964.22
2017-12-11T11:42:48.387Z,964.19
2017-12-11T11:43:58.364Z,964.23
2017-12-11T11:45:08.084Z,964.22
2017-12-11T11:46:17.808Z,964.21
2017-12-11T11:47:27.518Z,964.25
2017-12-11T11:48:37.234Z,964.25
2017-12-11T11:49:47.216Z,964.29
2017-12-11T11:50:57.196Z,964.3
2017-12-11T11:52:07.176Z,964.29
2017-12-11T11:53:17.157Z,964.32
2017-12-11T11:54:26.868Z,964.36
2017-12-11T11:55:36.593Z,964.43
2017-12-11T11:56:46.306Z,964.39
2017-12-11T11:57:56.281Z,964.41
2017-12-11T11:59:06.264Z,964.43
2017-12-11T12:00:16.293Z,964.44
2017-12-11T12:01:26.270Z,964.44
2017-12-11T12:02:36.248Z,964.43
2017-12-11T12:03:46.232Z,964.46
2017-12-11T12:04:56.336Z,964.47
2017-12-11T12:06:06.313Z,964.46
2017-12-11T12:07:16.350Z,964.45
2017-12-11T12:08:26.330Z,964.42
2017-12-11T12:09:36.315Z,964.45
2017-12-11T12:10:46.294Z,964.5
2017-12-11T12:11:55.910Z,964.48
2017-12-11T12:13:05.897Z,964.49
2017-12-11T12:14:15.616Z,964.52
2017-12-11T12:15:25.607Z,964.63
2017-12-11T12:16:35.585Z,964.66
2017-12-11T12:17:45.572Z,964.71
2017-12-11T12:18:55.566Z,964.76
2017-12-11T12:20:05.284Z,964.77
2017-12-11T12:21:15.265Z,964.77
2017-12-11T12:22:25.247Z,964.79
2017-12-11T12:23:35.235Z,964.81
2017-12-11T12:24:45.221Z,964.79
2017-12-11T12:25:55.217Z,964.78
2017-12-11T12:27:05.194Z,964.81
2017-12-11T12:28:15.170Z,964.81
2017-12-11T12:29:25.150Z,964.78
2017-12-11T12:30:35.380Z,964.79
2017-12-11T12:31:45.378Z,964.8
2017-12-11T12:32:55.356Z,964.84
2017-12-11T12:34:05.082Z,964.84
2017-12-11T12:35:15.129Z,964.88
2017-12-11T12:36:25.107Z,964.9
2017-12-11T12:37:34.819Z,964.89
2017-12-11T12:38:44.802Z,964.94
2017-12-11T12:39:54.780Z,964.91
2017-12-11T12:41:04.765Z,964.95
2017-12-11T12:42:14.742Z,964.98
2017-12-11T12:43:24.459Z,964.98
2017-12-11T12:44:33.906Z,965.02
2017-12-11T12:45:43.890Z,965.04
2017-12-11T12:46:53.876Z,965.05
2017-12-11T12:48:03.948Z,965.08
2017-12-11T12:49:13.929Z,965.11
2017-12-11T12:50:23.911Z,965.1
2017-12-11T12:51:33.896Z,965.12
2017-12-11T12:52:43.878Z,965.1
2017-12-11T12:53:53.856Z,965.14
2017-12-11T12:55:03.835Z,965.17
2017-12-11T12:56:13.288Z,965.16
2017-12-11T12:57:23.273Z,965.18
2017-12-11T12:58:33.257Z,965.19
2017-12-11T12:59:43.237Z,965.19
2017-12-11T13:00:53.221Z,965.28
2017-12-11T13:02:03.216Z,965.26
2017-12-11T13:03:13.202Z,965.26
2017-12-11T13:04:23.189Z,965.23
2017-12-11T13:05:32.900Z,965.22
2017-12-11T13:06:42.880Z,965.18
2017-12-11T13:07:52.858Z,965.23
2017-12-11T13:09:02.836Z,965.24
2017-12-11T13:10:12.820Z,965.22
2017-12-11T13:11:22.537Z,965.23
2017-12-11T13:12:32.295Z,965.24
2017-12-11T13:13:42.291Z,965.28
2017-12-11T13:14:52.279Z,965.26
2017-12-11T13:16:02.257Z,965.36
2017-12-11T13:17:12.240Z,965.38
2017-12-11T13:18:22.237Z,965.31
2017-12-11T13:19:31.957Z,965.36
2017-12-11T13:20:41.939Z,965.37
2017-12-11T13:21:51.920Z,965.38
2017-12-11T13:23:01.908Z,965.4
2017-12-11T13:24:11.895Z,965.41
2017-12-11T13:25:21.872Z,965.33
2017-12-11T13:26:31.320Z,965.37
2017-12-11T13:27:41.321Z,965.37
2017-12-11T13:28:51.091Z,965.33
2017-12-11T13:30:01.078Z,965.31
2017-12-11T13:31:10.798Z,965.27
2017-12-11T13:32:20.785Z,965.33
2017-12-11T13:33:30.507Z,965.37
2017-12-11T13:34:40.227Z,965.4
2017-12-11T13:35:49.675Z,965.43
2017-12-11T13:36:59.706Z,965.44
2017-12-11T13:38:09.686Z,965.43
2017-12-11T13:39:19.397Z,965.5
2017-12-11T13:40:29.382Z,965.49
2017-12-11T13:41:39.366Z,965.5
2017-12-11T13:42:49.355Z,965.52
2017-12-11T13:43:59.339Z,965.5
2017-12-11T13:45:09.338Z,965.51
2017-12-11T13:46:18.787Z,965.53
2017-12-11T13:47:28.767Z,965.5
2017-12-11T13:48:38.486Z,965.54
2017-12-11T13:49:48.469Z,965.54
2017-12-11T13:50:58.450Z,965.51
2017-12-11T13:52:08.434Z,965.47
2017-12-11T13:53:17.886Z,965.43
2017-12-11T13:54:27.869Z,965.42
2017-12-11T13:55:37.320Z,965.41
2017-12-11T13:56:47.301Z,965.4
2017-12-11T13:57:57.278Z,965.41
2017-12-11T13:59:07.361Z,965.42
2017-12-11T14:00:17.344Z,965.46
2017-12-11T14:01:27.326Z,965.48
2017-12-11T14:02:37.058Z,965.41
2017-12-11T14:03:47.039Z,965.42
2017-12-11T14:04:56.495Z,965.45
2017-12-11T14:06:06.486Z,965.45
2017-12-11T14:07:16.469Z,965.5
2017-12-11T14:08:26.459Z,965.43
2017-12-11T14:09:36.442Z,965.5
2017-12-11T14:10:46.425Z,965.5
2017-12-11T14:11:56.405Z,965.5
2017-12-11T14:13:06.394Z,965.49
2017-12-11T14:14:16.384Z,965.51
2017-12-11T14:15:26.364Z,965.51
2017-12-11T14:16:36.078Z,965.51
2017-12-11T14:17:46.058Z,965.5
2017-12-11T14:18:55.506Z,965.52
2017-12-11T14:20:05.485Z,965.51
2017-12-11T14:21:15.473Z,965.58
2017-12-11T14:22:25.465Z,965.61
2017-12-11T14:23:35.457Z,965.67
2017-12-11T14:24:45.439Z,965.69
2017-12-11T14:25:55.152Z,965.7
2017-12-11T14:27:05.135Z,965.74
2017-12-11T14:28:14.853Z,965.72
2017-12-11T14:29:24.844Z,965.77
2017-12-11T14:30:34.558Z,965.78
2017-12-11T14:31:44.539Z,965.79
2017-12-11T14:32:54.532Z,965.8
2017-12-11T14:34:04.247Z,965.79
2017-12-11T14:35:14.240Z,965.84
2017-12-11T14:36:23.952Z,965.84
2017-12-11T14:37:33.667Z,965.8
2017-12-11T14:38:43.382Z,965.83